sensor_id;sensor_type;location;lat;lon;timestamp;temperature;humidity
17489;DHT22;8861;52.644;4.734;2022-07-31T00:01:42;19.90;99.90
17489;DHT22;8861;52.644;4.734;2022-07-31T00:04:08;20.00;99.90
17489;DHT22;8861;52.644;4.734;2022-07-31T00:06:36;20.00;99.90
17489;DHT22;8861;52.644;4.734;2022-07-31T00:09:03;20.00;99.90
17489;DHT22;8861;52.644;4.734;2022-07-31T00:11:30;20.00;99.90
17489;DHT22;8861;52.644;4.734;2022-07-31T00:13:57;19.90;99.90
17489;DHT22;8861;52.644;4.734;2022-07-31T00:16:24;19.90;99.90
17489;DHT22;8861;52.644;4.734;2022-07-31T00:18:52;20.00;99.90
17489;DHT22;8861;52.644;4.734;2022-07-31T00:21:19;20.00;99.90
17489;DHT22;8861;52.644;4.734;2022-07-31T00:23:46;20.00;99.90
17489;DHT22;8861;52.644;4.734;2022-07-31T00:26:12;19.90;99.90
17489;DHT22;8861;52.644;4.734;2022-07-31T00:28:40;20.00;99.90
17489;DHT22;8861;52.644;4.734;2022-07-31T00:31:07;20.00;99.90
17489;DHT22;8861;52.644;4.734;2022-07-31T00:33:33;19.90;99.90
17489;DHT22;8861;52.644;4.734;2022-07-31T00:36:02;19.90;99.90
17489;DHT22;8861;52.644;4.734;2022-07-31T00:38:29;19.90;99.90
17489;DHT22;8861;52.644;4.734;2022-07-31T00:40:56;19.90;99.90
17489;DHT22;8861;52.644;4.734;2022-07-31T00:43:23;19.90;99.90
17489;DHT22;8861;52.644;4.734;2022-07-31T00:45:50;19.90;99.90
17489;DHT22;8861;52.644;4.734;2022-07-31T00:48:18;19.90;99.90
17489;DHT22;8861;52.644;4.734;2022-07-31T00:50:45;19.80;99.90
17489;DHT22;8861;52.644;4.734;2022-07-31T00:53:13;19.80;99.90
17489;DHT22;8861;52.644;4.734;2022-07-31T00:55:40;19.80;99.90
17489;DHT22;8861;52.644;4.734;2022-07-31T00:58:06;19.80;99.90
17489;DHT22;8861;52.644;4.734;2022-07-31T01:00:33;19.80;99.90
17489;DHT22;8861;52.644;4.734;2022-07-31T01:03:00;19.80;99.90
17489;DHT22;8861;52.644;4.734;2022-07-31T01:05:27;19.80;99.90
17489;DHT22;8861;52.644;4.734;2022-07-31T01:07:54;19.70;99.90
17489;DHT22;8861;52.644;4.734;2022-07-31T01:10:32;19.70;99.90
17489;DHT22;8861;52.644;4.734;2022-07-31T01:13:04;19.70;99.90
17489;DHT22;8861;52.644;4.734;2022-07-31T01:15:34;19.70;99.90
17489;DHT22;8861;52.644;4.734;2022-07-31T01:18:01;19.70;99.90
17489;DHT22;8861;52.644;4.734;2022-07-31T01:20:28;19.70;99.90
17489;DHT22;8861;52.644;4.734;2022-07-31T01:26:06;19.70;99.90
17489;DHT22;8861;52.644;4.734;2022-07-31T01:28:52;19.70;99.90
17489;DHT22;8861;52.644;4.734;2022-07-31T01:31:26;19.70;99.90
17489;DHT22;8861;52.644;4.734;2022-07-31T01:34:00;19.70;99.90
17489;DHT22;8861;52.644;4.734;2022-07-31T01:36:28;19.70;99.90
17489;DHT22;8861;52.644;4.734;2022-07-31T01:39:00;19.70;99.90
17489;DHT22;8861;52.644;4.734;2022-07-31T01:41:33;19.70;99.90
17489;DHT22;8861;52.644;4.734;2022-07-31T01:44:03;19.70;99.90
17489;DHT22;8861;52.644;4.734;2022-07-31T01:46:33;19.70;99.90
17489;DHT22;8861;52.644;4.734;2022-07-31T01:49:02;19.60;99.90
17489;DHT22;8861;52.644;4.734;2022-07-31T01:51:30;19.70;99.90
17489;DHT22;8861;52.644;4.734;2022-07-31T01:53:59;19.70;99.90
17489;DHT22;8861;52.644;4.734;2022-07-31T01:56:28;19.60;99.90
17489;DHT22;8861;52.644;4.734;2022-07-31T01:58:58;19.60;99.90
17489;DHT22;8861;52.644;4.734;2022-07-31T02:01:26;19.60;99.90
17489;DHT22;8861;52.644;4.734;2022-07-31T02:03:54;19.60;99.90
17489;DHT22;8861;52.644;4.734;2022-07-31T02:06:24;19.60;99.90
17489;DHT22;8861;52.644;4.734;2022-07-31T02:08:52;19.60;99.90
17489;DHT22;8861;52.644;4.734;2022-07-31T02:11:19;19.60;99.90
17489;DHT22;8861;52.644;4.734;2022-07-31T02:13:47;19.60;99.90
17489;DHT22;8861;52.644;4.734;2022-07-31T02:16:16;19.60;99.90
17489;DHT22;8861;52.644;4.734;2022-07-31T02:18:46;19.60;99.90
17489;DHT22;8861;52.644;4.734;2022-07-31T02:21:13;19.60;99.90
17489;DHT22;8861;52.644;4.734;2022-07-31T02:23:40;19.60;99.90
17489;DHT22;8861;52.644;4.734;2022-07-31T02:26:08;19.60;99.90
17489;DHT22;8861;52.644;4.734;2022-07-31T02:28:39;19.60;99.90
17489;DHT22;8861;52.644;4.734;2022-07-31T02:31:10;19.60;99.90
17489;DHT22;8861;52.644;4.734;2022-07-31T02:33:38;19.50;99.90
17489;DHT22;8861;52.644;4.734;2022-07-31T02:36:08;19.60;99.90
17489;DHT22;8861;52.644;4.734;2022-07-31T02:38:36;19.50;99.90
17489;DHT22;8861;52.644;4.734;2022-07-31T02:41:05;19.50;99.90
17489;DHT22;8861;52.644;4.734;2022-07-31T02:43:34;19.50;99.90
17489;DHT22;8861;52.644;4.734;2022-07-31T02:46:02;19.50;99.90
17489;DHT22;8861;52.644;4.734;2022-07-31T02:48:30;19.50;99.90
17489;DHT22;8861;52.644;4.734;2022-07-31T02:50:57;19.50;99.90
17489;DHT22;8861;52.644;4.734;2022-07-31T02:53:26;19.40;99.90
17489;DHT22;8861;52.644;4.734;2022-07-31T02:55:54;19.50;99.90
17489;DHT22;8861;52.644;4.734;2022-07-31T02:58:21;19.40;99.90
17489;DHT22;8861;52.644;4.734;2022-07-31T03:00:57;19.40;99.90
17489;DHT22;8861;52.644;4.734;2022-07-31T03:03:24;19.40;99.90
17489;DHT22;8861;52.644;4.734;2022-07-31T03:05:51;19.40;99.90
17489;DHT22;8861;52.644;4.734;2022-07-31T03:08:18;19.40;99.90
17489;DHT22;8861;52.644;4.734;2022-07-31T03:10:46;19.40;99.90
17489;DHT22;8861;52.644;4.734;2022-07-31T03:13:15;19.30;99.90
17489;DHT22;8861;52.644;4.734;2022-07-31T03:15:43;19.30;99.90
17489;DHT22;8861;52.644;4.734;2022-07-31T03:18:11;19.30;99.90
17489;DHT22;8861;52.644;4.734;2022-07-31T03:20:40;19.30;99.90
17489;DHT22;8861;52.644;4.734;2022-07-31T03:23:09;19.30;99.90
17489;DHT22;8861;52.644;4.734;2022-07-31T03:25:36;19.30;99.90
17489;DHT22;8861;52.644;4.734;2022-07-31T03:28:05;19.30;99.90
17489;DHT22;8861;52.644;4.734;2022-07-31T03:30:33;19.30;99.90
17489;DHT22;8861;52.644;4.734;2022-07-31T03:33:01;19.30;99.90
17489;DHT22;8861;52.644;4.734;2022-07-31T03:35:28;19.30;99.90
17489;DHT22;8861;52.644;4.734;2022-07-31T03:37:55;19.30;99.90
17489;DHT22;8861;52.644;4.734;2022-07-31T03:40:23;19.20;99.90
17489;DHT22;8861;52.644;4.734;2022-07-31T03:42:50;19.30;99.90
17489;DHT22;8861;52.644;4.734;2022-07-31T03:45:19;19.30;99.90
17489;DHT22;8861;52.644;4.734;2022-07-31T03:47:47;19.20;99.90
17489;DHT22;8861;52.644;4.734;2022-07-31T03:50:14;19.30;99.90
17489;DHT22;8861;52.644;4.734;2022-07-31T03:52:43;19.30;99.90
17489;DHT22;8861;52.644;4.734;2022-07-31T03:55:10;19.30;99.90
17489;DHT22;8861;52.644;4.734;2022-07-31T03:57:37;19.30;99.90
17489;DHT22;8861;52.644;4.734;2022-07-31T04:00:06;19.30;99.90
17489;DHT22;8861;52.644;4.734;2022-07-31T04:02:35;19.30;99.90
17489;DHT22;8861;52.644;4.734;2022-07-31T04:05:03;19.40;99.90
17489;DHT22;8861;52.644;4.734;2022-07-31T04:07:30;19.40;99.90
17489;DHT22;8861;52.644;4.734;2022-07-31T04:09:57;19.40;99.90
17489;DHT22;8861;52.644;4.734;2022-07-31T04:12:23;19.50;99.90
17489;DHT22;8861;52.644;4.734;2022-07-31T04:14:50;19.50;99.90
17489;DHT22;8861;52.644;4.734;2022-07-31T04:17:17;19.50;99.90
17489;DHT22;8861;52.644;4.734;2022-07-31T04:19:45;19.50;99.90
17489;DHT22;8861;52.644;4.734;2022-07-31T04:22:14;19.60;99.90
17489;DHT22;8861;52.644;4.734;2022-07-31T04:24:40;19.60;99.90
17489;DHT22;8861;52.644;4.734;2022-07-31T04:27:07;19.60;99.90
17489;DHT22;8861;52.644;4.734;2022-07-31T04:29:34;19.70;99.90
17489;DHT22;8861;52.644;4.734;2022-07-31T04:32:02;19.70;99.90
17489;DHT22;8861;52.644;4.734;2022-07-31T04:34:29;19.80;99.90
17489;DHT22;8861;52.644;4.734;2022-07-31T04:36:57;19.80;99.90
17489;DHT22;8861;52.644;4.734;2022-07-31T04:39:24;19.80;99.90
17489;DHT22;8861;52.644;4.734;2022-07-31T04:41:51;19.90;99.90
17489;DHT22;8861;52.644;4.734;2022-07-31T04:44:18;19.90;99.90
17489;DHT22;8861;52.644;4.734;2022-07-31T04:46:45;19.90;99.90
17489;DHT22;8861;52.644;4.734;2022-07-31T04:49:12;20.00;99.90
17489;DHT22;8861;52.644;4.734;2022-07-31T04:51:39;20.00;99.90
17489;DHT22;8861;52.644;4.734;2022-07-31T04:54:08;20.20;99.90
17489;DHT22;8861;52.644;4.734;2022-07-31T04:56:35;20.20;99.90
17489;DHT22;8861;52.644;4.734;2022-07-31T04:59:08;20.20;99.90
17489;DHT22;8861;52.644;4.734;2022-07-31T05:01:36;20.30;99.90
17489;DHT22;8861;52.644;4.734;2022-07-31T05:04:04;20.30;99.90
17489;DHT22;8861;52.644;4.734;2022-07-31T05:06:35;20.30;99.90
17489;DHT22;8861;52.644;4.734;2022-07-31T05:09:04;20.40;99.90
17489;DHT22;8861;52.644;4.734;2022-07-31T05:11:33;20.40;99.90
17489;DHT22;8861;52.644;4.734;2022-07-31T05:14:03;20.40;99.90
17489;DHT22;8861;52.644;4.734;2022-07-31T05:16:30;20.50;99.90
17489;DHT22;8861;52.644;4.734;2022-07-31T05:18:58;20.50;99.90
17489;DHT22;8861;52.644;4.734;2022-07-31T05:21:25;20.50;99.90
17489;DHT22;8861;52.644;4.734;2022-07-31T05:23:53;20.50;99.90
17489;DHT22;8861;52.644;4.734;2022-07-31T05:26:20;20.50;99.90
17489;DHT22;8861;52.644;4.734;2022-07-31T05:28:50;20.50;99.90
17489;DHT22;8861;52.644;4.734;2022-07-31T05:31:17;20.50;99.90
17489;DHT22;8861;52.644;4.734;2022-07-31T05:33:46;20.50;99.90
17489;DHT22;8861;52.644;4.734;2022-07-31T05:36:14;20.50;99.90
17489;DHT22;8861;52.644;4.734;2022-07-31T05:38:41;20.50;99.90
17489;DHT22;8861;52.644;4.734;2022-07-31T05:41:08;20.60;99.90
17489;DHT22;8861;52.644;4.734;2022-07-31T05:43:36;20.60;99.90
17489;DHT22;8861;52.644;4.734;2022-07-31T05:46:04;20.60;99.90
17489;DHT22;8861;52.644;4.734;2022-07-31T05:48:32;20.70;99.90
17489;DHT22;8861;52.644;4.734;2022-07-31T05:50:59;20.70;99.90
17489;DHT22;8861;52.644;4.734;2022-07-31T05:53:26;20.80;99.90
17489;DHT22;8861;52.644;4.734;2022-07-31T05:55:52;20.80;99.90
17489;DHT22;8861;52.644;4.734;2022-07-31T05:58:19;20.90;99.90
17489;DHT22;8861;52.644;4.734;2022-07-31T06:00:48;20.90;99.90
17489;DHT22;8861;52.644;4.734;2022-07-31T06:03:21;20.90;99.90
17489;DHT22;8861;52.644;4.734;2022-07-31T06:05:48;20.90;99.90
17489;DHT22;8861;52.644;4.734;2022-07-31T06:08:16;21.00;99.90
17489;DHT22;8861;52.644;4.734;2022-07-31T06:10:43;21.10;99.90
17489;DHT22;8861;52.644;4.734;2022-07-31T06:13:11;21.10;99.90
17489;DHT22;8861;52.644;4.734;2022-07-31T06:15:40;21.20;99.90
17489;DHT22;8861;52.644;4.734;2022-07-31T06:18:07;21.20;99.90
17489;DHT22;8861;52.644;4.734;2022-07-31T06:20:36;21.20;99.90
17489;DHT22;8861;52.644;4.734;2022-07-31T06:23:03;21.20;99.90
17489;DHT22;8861;52.644;4.734;2022-07-31T06:25:29;21.20;99.90
17489;DHT22;8861;52.644;4.734;2022-07-31T06:27:56;21.20;99.90
17489;DHT22;8861;52.644;4.734;2022-07-31T06:30:24;21.10;99.90
17489;DHT22;8861;52.644;4.734;2022-07-31T06:32:51;21.10;99.90
17489;DHT22;8861;52.644;4.734;2022-07-31T06:35:18;21.00;99.90
17489;DHT22;8861;52.644;4.734;2022-07-31T06:37:46;21.00;99.90
17489;DHT22;8861;52.644;4.734;2022-07-31T06:40:13;20.90;99.90
17489;DHT22;8861;52.644;4.734;2022-07-31T06:42:40;20.70;99.90
17489;DHT22;8861;52.644;4.734;2022-07-31T06:45:08;20.70;99.90
17489;DHT22;8861;52.644;4.734;2022-07-31T06:47:36;20.50;99.90
17489;DHT22;8861;52.644;4.734;2022-07-31T06:50:03;20.50;99.90
17489;DHT22;8861;52.644;4.734;2022-07-31T06:52:31;20.40;99.90
17489;DHT22;8861;52.644;4.734;2022-07-31T06:54:59;20.30;99.90
17489;DHT22;8861;52.644;4.734;2022-07-31T06:57:26;20.20;99.90
17489;DHT22;8861;52.644;4.734;2022-07-31T06:59:53;20.20;99.90
17489;DHT22;8861;52.644;4.734;2022-07-31T07:02:20;20.10;99.90
17489;DHT22;8861;52.644;4.734;2022-07-31T07:04:47;20.10;99.90
17489;DHT22;8861;52.644;4.734;2022-07-31T07:07:14;20.10;99.90
17489;DHT22;8861;52.644;4.734;2022-07-31T07:09:41;20.10;99.90
17489;DHT22;8861;52.644;4.734;2022-07-31T07:12:09;20.00;99.90
17489;DHT22;8861;52.644;4.734;2022-07-31T07:14:36;20.00;99.90
17489;DHT22;8861;52.644;4.734;2022-07-31T07:17:04;20.00;99.90
17489;DHT22;8861;52.644;4.734;2022-07-31T07:19:31;20.00;99.90
17489;DHT22;8861;52.644;4.734;2022-07-31T07:21:58;19.90;99.90
17489;DHT22;8861;52.644;4.734;2022-07-31T07:24:25;19.90;99.90
17489;DHT22;8861;52.644;4.734;2022-07-31T07:26:52;19.90;99.90
17489;DHT22;8861;52.644;4.734;2022-07-31T07:29:21;19.90;99.90
17489;DHT22;8861;52.644;4.734;2022-07-31T07:31:49;19.90;99.90
17489;DHT22;8861;52.644;4.734;2022-07-31T07:34:16;19.90;99.90
17489;DHT22;8861;52.644;4.734;2022-07-31T07:36:43;19.90;99.90
17489;DHT22;8861;52.644;4.734;2022-07-31T07:39:09;19.90;99.90
17489;DHT22;8861;52.644;4.734;2022-07-31T07:41:36;20.00;99.90
17489;DHT22;8861;52.644;4.734;2022-07-31T07:44:04;20.10;99.90
17489;DHT22;8861;52.644;4.734;2022-07-31T07:46:35;20.20;99.90
17489;DHT22;8861;52.644;4.734;2022-07-31T07:49:03;20.30;99.90
17489;DHT22;8861;52.644;4.734;2022-07-31T07:51:31;20.30;99.90
17489;DHT22;8861;52.644;4.734;2022-07-31T07:53:58;20.30;99.90
17489;DHT22;8861;52.644;4.734;2022-07-31T07:56:25;20.30;99.90
17489;DHT22;8861;52.644;4.734;2022-07-31T07:58:52;20.30;99.90
17489;DHT22;8861;52.644;4.734;2022-07-31T08:01:20;20.30;99.90
17489;DHT22;8861;52.644;4.734;2022-07-31T08:03:48;20.30;99.90
17489;DHT22;8861;52.644;4.734;2022-07-31T08:06:15;20.30;99.90
17489;DHT22;8861;52.644;4.734;2022-07-31T08:08:42;20.30;99.90
17489;DHT22;8861;52.644;4.734;2022-07-31T08:11:09;20.20;99.90
17489;DHT22;8861;52.644;4.734;2022-07-31T08:13:36;20.10;99.90
17489;DHT22;8861;52.644;4.734;2022-07-31T08:16:03;20.00;99.90
17489;DHT22;8861;52.644;4.734;2022-07-31T08:18:30;20.00;99.90
17489;DHT22;8861;52.644;4.734;2022-07-31T08:20:58;20.00;99.90
17489;DHT22;8861;52.644;4.734;2022-07-31T08:23:25;20.00;99.90
17489;DHT22;8861;52.644;4.734;2022-07-31T08:25:52;20.00;99.90
17489;DHT22;8861;52.644;4.734;2022-07-31T08:28:19;20.10;99.90
17489;DHT22;8861;52.644;4.734;2022-07-31T08:30:46;20.10;99.90
17489;DHT22;8861;52.644;4.734;2022-07-31T08:33:13;20.20;99.90
17489;DHT22;8861;52.644;4.734;2022-07-31T08:35:40;20.30;99.90
17489;DHT22;8861;52.644;4.734;2022-07-31T08:38:08;20.40;99.90
17489;DHT22;8861;52.644;4.734;2022-07-31T08:40:37;20.40;99.90
17489;DHT22;8861;52.644;4.734;2022-07-31T08:43:04;20.50;99.90
17489;DHT22;8861;52.644;4.734;2022-07-31T08:45:31;20.50;99.90
17489;DHT22;8861;52.644;4.734;2022-07-31T08:48:02;20.50;99.90
17489;DHT22;8861;52.644;4.734;2022-07-31T08:50:33;20.40;99.90
17489;DHT22;8861;52.644;4.734;2022-07-31T08:53:01;20.40;99.90
17489;DHT22;8861;52.644;4.734;2022-07-31T08:55:30;20.30;99.90
17489;DHT22;8861;52.644;4.734;2022-07-31T08:57:58;20.10;99.90
17489;DHT22;8861;52.644;4.734;2022-07-31T09:00:25;20.10;99.90
17489;DHT22;8861;52.644;4.734;2022-07-31T09:02:53;20.20;99.90
17489;DHT22;8861;52.644;4.734;2022-07-31T09:05:20;20.20;99.90
17489;DHT22;8861;52.644;4.734;2022-07-31T09:07:49;20.20;99.90
17489;DHT22;8861;52.644;4.734;2022-07-31T09:10:22;20.20;99.90
17489;DHT22;8861;52.644;4.734;2022-07-31T09:12:50;20.10;99.90
17489;DHT22;8861;52.644;4.734;2022-07-31T09:15:23;20.00;99.90
17489;DHT22;8861;52.644;4.734;2022-07-31T09:17:51;19.90;99.90
17489;DHT22;8861;52.644;4.734;2022-07-31T09:20:20;19.80;99.90
17489;DHT22;8861;52.644;4.734;2022-07-31T09:22:51;19.80;99.90
17489;DHT22;8861;52.644;4.734;2022-07-31T09:25:19;19.80;99.90
17489;DHT22;8861;52.644;4.734;2022-07-31T09:27:46;19.80;99.90
17489;DHT22;8861;52.644;4.734;2022-07-31T09:30:17;19.90;99.90
17489;DHT22;8861;52.644;4.734;2022-07-31T09:32:43;19.90;99.90
17489;DHT22;8861;52.644;4.734;2022-07-31T09:35:11;19.90;99.90
17489;DHT22;8861;52.644;4.734;2022-07-31T09:37:39;19.90;99.90
17489;DHT22;8861;52.644;4.734;2022-07-31T09:40:07;19.90;99.90
17489;DHT22;8861;52.644;4.734;2022-07-31T09:42:39;19.90;99.90
17489;DHT22;8861;52.644;4.734;2022-07-31T09:45:20;19.90;99.90
17489;DHT22;8861;52.644;4.734;2022-07-31T09:48:01;19.90;99.90
17489;DHT22;8861;52.644;4.734;2022-07-31T09:50:28;19.90;99.90
17489;DHT22;8861;52.644;4.734;2022-07-31T09:52:59;20.00;99.90
17489;DHT22;8861;52.644;4.734;2022-07-31T09:55:27;20.10;99.90
17489;DHT22;8861;52.644;4.734;2022-07-31T09:57:55;20.10;99.90
17489;DHT22;8861;52.644;4.734;2022-07-31T10:00:25;20.10;99.90
17489;DHT22;8861;52.644;4.734;2022-07-31T10:02:54;20.00;99.90
17489;DHT22;8861;52.644;4.734;2022-07-31T10:05:23;20.00;99.90
17489;DHT22;8861;52.644;4.734;2022-07-31T10:07:56;20.00;99.90
17489;DHT22;8861;52.644;4.734;2022-07-31T10:10:26;20.00;99.90
17489;DHT22;8861;52.644;4.734;2022-07-31T10:12:55;20.00;99.90
17489;DHT22;8861;52.644;4.734;2022-07-31T10:15:27;20.00;99.90
17489;DHT22;8861;52.644;4.734;2022-07-31T10:17:55;19.90;99.90
17489;DHT22;8861;52.644;4.734;2022-07-31T10:20:23;20.00;99.90
17489;DHT22;8861;52.644;4.734;2022-07-31T10:22:54;20.10;99.90
17489;DHT22;8861;52.644;4.734;2022-07-31T10:25:24;20.20;99.90
17489;DHT22;8861;52.644;4.734;2022-07-31T10:27:51;20.30;99.90
17489;DHT22;8861;52.644;4.734;2022-07-31T10:30:19;20.40;99.90
17489;DHT22;8861;52.644;4.734;2022-07-31T10:32:48;20.40;99.90
17489;DHT22;8861;52.644;4.734;2022-07-31T10:35:16;20.50;99.90
17489;DHT22;8861;52.644;4.734;2022-07-31T10:37:49;20.60;99.90
17489;DHT22;8861;52.644;4.734;2022-07-31T10:40:24;20.60;99.90
17489;DHT22;8861;52.644;4.734;2022-07-31T10:42:59;20.50;99.90
17489;DHT22;8861;52.644;4.734;2022-07-31T10:45:28;20.50;99.90
17489;DHT22;8861;52.644;4.734;2022-07-31T10:47:59;20.50;99.90
17489;DHT22;8861;52.644;4.734;2022-07-31T10:50:27;20.50;99.90
17489;DHT22;8861;52.644;4.734;2022-07-31T10:53:06;20.50;99.90
17489;DHT22;8861;52.644;4.734;2022-07-31T10:55:34;20.60;99.90
17489;DHT22;8861;52.644;4.734;2022-07-31T10:58:09;20.70;99.90
17489;DHT22;8861;52.644;4.734;2022-07-31T11:00:36;20.80;99.90
17489;DHT22;8861;52.644;4.734;2022-07-31T11:03:16;20.80;99.90
17489;DHT22;8861;52.644;4.734;2022-07-31T11:05:54;20.80;99.90
17489;DHT22;8861;52.644;4.734;2022-07-31T11:08:21;20.80;99.90
17489;DHT22;8861;52.644;4.734;2022-07-31T11:10:49;20.70;99.90
17489;DHT22;8861;52.644;4.734;2022-07-31T11:13:18;20.60;99.90
17489;DHT22;8861;52.644;4.734;2022-07-31T11:15:46;20.50;99.90
17489;DHT22;8861;52.644;4.734;2022-07-31T11:18:16;20.40;99.90
17489;DHT22;8861;52.644;4.734;2022-07-31T11:20:43;20.20;99.90
17489;DHT22;8861;52.644;4.734;2022-07-31T11:23:14;20.10;99.90
17489;DHT22;8861;52.644;4.734;2022-07-31T11:25:45;20.10;99.90
17489;DHT22;8861;52.644;4.734;2022-07-31T11:28:13;20.00;99.90
17489;DHT22;8861;52.644;4.734;2022-07-31T11:30:50;20.00;99.90
17489;DHT22;8861;52.644;4.734;2022-07-31T11:33:32;20.00;99.90
17489;DHT22;8861;52.644;4.734;2022-07-31T11:36:07;20.00;99.90
17489;DHT22;8861;52.644;4.734;2022-07-31T11:38:35;20.10;99.90
17489;DHT22;8861;52.644;4.734;2022-07-31T11:41:03;20.10;99.90
17489;DHT22;8861;52.644;4.734;2022-07-31T11:43:30;20.10;99.90
17489;DHT22;8861;52.644;4.734;2022-07-31T11:45:59;20.10;99.90
17489;DHT22;8861;52.644;4.734;2022-07-31T11:48:28;20.20;99.90
17489;DHT22;8861;52.644;4.734;2022-07-31T11:50:57;20.40;99.90
17489;DHT22;8861;52.644;4.734;2022-07-31T11:53:25;20.50;99.90
17489;DHT22;8861;52.644;4.734;2022-07-31T11:55:53;20.60;99.90
17489;DHT22;8861;52.644;4.734;2022-07-31T11:58:22;20.70;99.90
17489;DHT22;8861;52.644;4.734;2022-07-31T12:00:53;20.90;99.90
17489;DHT22;8861;52.644;4.734;2022-07-31T12:03:22;20.90;99.90
17489;DHT22;8861;52.644;4.734;2022-07-31T12:05:51;20.90;99.90
17489;DHT22;8861;52.644;4.734;2022-07-31T12:08:19;21.10;99.90
17489;DHT22;8861;52.644;4.734;2022-07-31T12:10:47;21.30;99.90
17489;DHT22;8861;52.644;4.734;2022-07-31T12:13:17;21.40;99.90
17489;DHT22;8861;52.644;4.734;2022-07-31T12:15:58;21.40;99.90
17489;DHT22;8861;52.644;4.734;2022-07-31T12:18:26;21.10;99.90
17489;DHT22;8861;52.644;4.734;2022-07-31T12:20:57;20.90;99.90
17489;DHT22;8861;52.644;4.734;2022-07-31T12:23:38;20.80;99.90
17489;DHT22;8861;52.644;4.734;2022-07-31T12:26:06;20.80;99.90
17489;DHT22;8861;52.644;4.734;2022-07-31T12:28:33;20.80;99.90
17489;DHT22;8861;52.644;4.734;2022-07-31T12:31:00;20.80;99.90
17489;DHT22;8861;52.644;4.734;2022-07-31T12:33:27;20.90;99.90
17489;DHT22;8861;52.644;4.734;2022-07-31T12:35:55;21.10;99.90
17489;DHT22;8861;52.644;4.734;2022-07-31T12:38:25;21.30;99.90
17489;DHT22;8861;52.644;4.734;2022-07-31T12:41:02;21.50;99.90
17489;DHT22;8861;52.644;4.734;2022-07-31T12:43:30;21.60;99.90
17489;DHT22;8861;52.644;4.734;2022-07-31T12:45:57;21.60;99.90
17489;DHT22;8861;52.644;4.734;2022-07-31T12:48:27;21.70;99.90
17489;DHT22;8861;52.644;4.734;2022-07-31T12:50:56;21.70;99.90
17489;DHT22;8861;52.644;4.734;2022-07-31T12:53:23;21.60;99.90
17489;DHT22;8861;52.644;4.734;2022-07-31T12:55:50;21.50;99.90
17489;DHT22;8861;52.644;4.734;2022-07-31T12:58:17;21.30;99.90
17489;DHT22;8861;52.644;4.734;2022-07-31T13:00:44;21.20;99.90
17489;DHT22;8861;52.644;4.734;2022-07-31T13:03:11;21.20;99.90
17489;DHT22;8861;52.644;4.734;2022-07-31T13:05:38;21.10;99.90
17489;DHT22;8861;52.644;4.734;2022-07-31T13:08:07;21.10;99.90
17489;DHT22;8861;52.644;4.734;2022-07-31T13:10:34;21.00;99.90
17489;DHT22;8861;52.644;4.734;2022-07-31T13:13:02;20.80;99.90
17489;DHT22;8861;52.644;4.734;2022-07-31T13:15:33;20.70;99.90
17489;DHT22;8861;52.644;4.734;2022-07-31T13:18:09;20.60;99.90
17489;DHT22;8861;52.644;4.734;2022-07-31T13:20:41;20.40;99.90
17489;DHT22;8861;52.644;4.734;2022-07-31T13:23:09;20.30;99.90
17489;DHT22;8861;52.644;4.734;2022-07-31T13:25:36;20.20;99.90
17489;DHT22;8861;52.644;4.734;2022-07-31T13:28:03;20.10;99.90
17489;DHT22;8861;52.644;4.734;2022-07-31T13:30:30;20.10;99.90
17489;DHT22;8861;52.644;4.734;2022-07-31T13:32:57;20.10;99.90
17489;DHT22;8861;52.644;4.734;2022-07-31T13:35:24;20.10;99.90
17489;DHT22;8861;52.644;4.734;2022-07-31T13:37:51;20.10;99.90
17489;DHT22;8861;52.644;4.734;2022-07-31T13:40:20;20.00;99.90
17489;DHT22;8861;52.644;4.734;2022-07-31T13:43:08;20.00;99.90
17489;DHT22;8861;52.644;4.734;2022-07-31T13:45:36;20.10;99.90
17489;DHT22;8861;52.644;4.734;2022-07-31T13:48:07;20.20;99.90
17489;DHT22;8861;52.644;4.734;2022-07-31T13:50:34;20.20;99.90
17489;DHT22;8861;52.644;4.734;2022-07-31T13:53:03;20.10;99.90
17489;DHT22;8861;52.644;4.734;2022-07-31T13:55:31;20.10;99.90
17489;DHT22;8861;52.644;4.734;2022-07-31T13:58:01;20.10;99.90
17489;DHT22;8861;52.644;4.734;2022-07-31T14:00:29;20.20;99.90
17489;DHT22;8861;52.644;4.734;2022-07-31T14:02:56;20.30;99.90
17489;DHT22;8861;52.644;4.734;2022-07-31T14:05:32;20.30;99.90
17489;DHT22;8861;52.644;4.734;2022-07-31T14:07:59;20.30;99.90
17489;DHT22;8861;52.644;4.734;2022-07-31T14:10:36;20.10;99.90
17489;DHT22;8861;52.644;4.734;2022-07-31T14:13:05;20.10;99.90
17489;DHT22;8861;52.644;4.734;2022-07-31T14:15:31;20.10;99.90
17489;DHT22;8861;52.644;4.734;2022-07-31T14:17:58;20.00;99.90
17489;DHT22;8861;52.644;4.734;2022-07-31T14:20:25;20.00;99.90
17489;DHT22;8861;52.644;4.734;2022-07-31T14:22:56;20.00;99.90
17489;DHT22;8861;52.644;4.734;2022-07-31T14:25:27;20.00;99.90
17489;DHT22;8861;52.644;4.734;2022-07-31T14:27:55;20.10;99.90
17489;DHT22;8861;52.644;4.734;2022-07-31T14:30:27;20.10;99.90
17489;DHT22;8861;52.644;4.734;2022-07-31T14:32:56;20.20;99.90
17489;DHT22;8861;52.644;4.734;2022-07-31T14:35:23;20.20;99.90
17489;DHT22;8861;52.644;4.734;2022-07-31T14:37:50;20.20;99.90
17489;DHT22;8861;52.644;4.734;2022-07-31T14:40:17;20.10;99.90
17489;DHT22;8861;52.644;4.734;2022-07-31T14:42:44;20.20;99.90
17489;DHT22;8861;52.644;4.734;2022-07-31T14:45:12;20.10;99.90
17489;DHT22;8861;52.644;4.734;2022-07-31T14:47:39;20.20;99.90
17489;DHT22;8861;52.644;4.734;2022-07-31T14:50:07;20.30;99.90
17489;DHT22;8861;52.644;4.734;2022-07-31T14:52:34;20.30;99.90
17489;DHT22;8861;52.644;4.734;2022-07-31T14:55:01;20.30;99.90
17489;DHT22;8861;52.644;4.734;2022-07-31T14:57:30;20.40;99.90
17489;DHT22;8861;52.644;4.734;2022-07-31T14:59:57;20.40;99.90
17489;DHT22;8861;52.644;4.734;2022-07-31T15:02:26;20.50;99.90
17489;DHT22;8861;52.644;4.734;2022-07-31T15:04:53;20.60;99.90
17489;DHT22;8861;52.644;4.734;2022-07-31T15:07:20;20.60;99.90
17489;DHT22;8861;52.644;4.734;2022-07-31T15:09:47;20.60;99.90
17489;DHT22;8861;52.644;4.734;2022-07-31T15:12:14;20.60;99.90
17489;DHT22;8861;52.644;4.734;2022-07-31T15:14:42;20.60;99.90
17489;DHT22;8861;52.644;4.734;2022-07-31T15:17:09;20.60;99.90
17489;DHT22;8861;52.644;4.734;2022-07-31T15:19:37;20.70;99.90
17489;DHT22;8861;52.644;4.734;2022-07-31T15:22:04;20.70;99.90
17489;DHT22;8861;52.644;4.734;2022-07-31T15:24:31;20.70;99.90
17489;DHT22;8861;52.644;4.734;2022-07-31T15:26:58;20.80;99.90
17489;DHT22;8861;52.644;4.734;2022-07-31T15:29:25;20.90;99.90
17489;DHT22;8861;52.644;4.734;2022-07-31T15:31:52;21.00;99.90
17489;DHT22;8861;52.644;4.734;2022-07-31T15:34:25;21.10;99.90
17489;DHT22;8861;52.644;4.734;2022-07-31T15:36:56;21.10;99.90
17489;DHT22;8861;52.644;4.734;2022-07-31T15:39:23;21.10;99.90
17489;DHT22;8861;52.644;4.734;2022-07-31T15:41:50;21.00;99.90
17489;DHT22;8861;52.644;4.734;2022-07-31T15:44:20;21.00;99.90
17489;DHT22;8861;52.644;4.734;2022-07-31T15:46:47;20.90;99.90
17489;DHT22;8861;52.644;4.734;2022-07-31T15:49:14;20.80;99.90
17489;DHT22;8861;52.644;4.734;2022-07-31T15:51:41;20.80;99.90
17489;DHT22;8861;52.644;4.734;2022-07-31T15:54:09;20.70;99.90
17489;DHT22;8861;52.644;4.734;2022-07-31T15:56:36;20.60;99.90